createdAt,value
2022-12-20T00:01:32.187Z,31.50
2022-12-20T00:04:02.969Z,26.50
2022-12-20T00:06:31.077Z,26.53
2022-12-20T00:09:01.150Z,25.80
2022-12-20T00:11:31.204Z,26.07
2022-12-20T00:13:59.886Z,30.00
2022-12-20T00:16:29.472Z,20.13
2022-12-20T00:18:59.359Z,23.43
2022-12-20T00:21:28.508Z,21.37
2022-12-20T00:23:56.811Z,25.27
2022-12-20T00:26:27.356Z,28.13
2022-12-20T00:28:58.020Z,25.10
2022-12-20T00:31:27.891Z,27.53
2022-12-20T00:33:57.086Z,27.10
2022-12-20T00:36:28.534Z,26.57
2022-12-20T00:38:58.171Z,23.93
2022-12-20T00:41:28.486Z,29.67
2022-12-20T00:43:58.155Z,26.53
2022-12-20T00:46:27.095Z,24.60
2022-12-20T00:48:56.826Z,26.17
2022-12-20T00:51:27.034Z,20.13
2022-12-20T00:53:55.856Z,21.90
2022-12-20T00:56:24.114Z,23.70
2022-12-20T00:58:54.457Z,23.03
2022-12-20T01:01:26.513Z,20.53
2022-12-20T01:03:55.499Z,20.60
2022-12-20T01:06:24.951Z,19.30
2022-12-20T01:08:54.032Z,21.93
2022-12-20T01:11:24.039Z,21.57
2022-12-20T01:13:55.954Z,22.13
2022-12-20T01:16:28.007Z,22.20
2022-12-20T01:18:56.346Z,15.57
2022-12-20T01:21:27.399Z,19.13
2022-12-20T01:23:56.176Z,19.20
2022-12-20T01:26:26.869Z,17.33
2022-12-20T01:28:57.760Z,16.73
2022-12-20T01:31:27.990Z,20.63
2022-12-20T01:33:56.463Z,18.37
2022-12-20T01:36:27.084Z,18.43
2022-12-20T01:38:58.761Z,23.00
2022-12-20T01:41:28.687Z,19.30
2022-12-20T01:43:59.186Z,18.67
2022-12-20T01:46:30.602Z,20.07
2022-12-20T01:49:03.476Z,20.43
2022-12-20T01:51:35.243Z,20.50
2022-12-20T01:54:08.564Z,18.67
2022-12-20T01:56:38.314Z,21.37
2022-12-20T01:59:07.547Z,19.63
2022-12-20T02:01:37.245Z,21.10
2022-12-20T02:04:05.403Z,23.07
2022-12-20T02:06:33.459Z,25.03
2022-12-20T02:09:04.685Z,25.77
2022-12-20T02:11:50.196Z,25.13
2022-12-20T02:14:31.344Z,18.37
2022-12-20T02:17:12.963Z,22.57
2022-12-20T02:20:11.223Z,25.17
2022-12-20T02:22:54.301Z,22.60
2022-12-20T02:25:50.875Z,20.87
2022-12-20T02:28:35.348Z,22.40
2022-12-20T02:31:09.194Z,22.93
2022-12-20T02:33:37.467Z,22.70
2022-12-20T02:36:06.359Z,21.10
2022-12-20T02:38:39.001Z,25.63
2022-12-20T02:41:12.814Z,24.53
2022-12-20T02:44:02.906Z,22.77
2022-12-20T02:46:33.495Z,38.43
2022-12-20T02:49:05.876Z,20.23
2022-12-20T02:51:34.797Z,19.70
2022-12-20T02:54:03.415Z,20.37
2022-12-20T02:56:35.973Z,19.07
2022-12-20T02:59:10.507Z,23.63
2022-12-20T03:01:45.802Z,21.37
2022-12-20T03:04:14.540Z,26.10
2022-12-20T03:06:57.109Z,20.43
2022-12-20T03:09:25.537Z,22.50
2022-12-20T03:11:54.429Z,22.30
2022-12-20T03:14:22.789Z,20.20
2022-12-20T03:16:54.301Z,19.73
2022-12-20T03:19:22.767Z,20.80
2022-12-20T03:21:50.818Z,20.63
2022-12-20T03:24:19.397Z,16.00
2022-12-20T03:26:48.061Z,22.03
2022-12-20T03:29:16.544Z,17.60
2022-12-20T03:31:44.534Z,18.53
2022-12-20T03:34:14.051Z,24.23
2022-12-20T03:36:42.208Z,20.17
2022-12-20T03:39:10.268Z,24.13
2022-12-20T03:41:40.919Z,18.10
2022-12-20T03:44:11.081Z,24.73
2022-12-20T03:46:39.225Z,21.50
2022-12-20T03:49:07.320Z,21.20
2022-12-20T03:51:43.528Z,25.37
2022-12-20T03:54:11.744Z,24.93
2022-12-20T03:57:06.101Z,17.03
2022-12-20T03:59:35.545Z,20.33
2022-12-20T04:02:05.417Z,19.73
2022-12-20T04:04:33.486Z,23.90
2022-12-20T04:07:03.073Z,21.57
2022-12-20T04:09:31.744Z,19.90
2022-12-20T04:12:06.735Z,23.47
2022-12-20T04:14:38.445Z,17.20
2022-12-20T04:17:07.051Z,24.63
2022-12-20T04:19:35.922Z,21.77
2022-12-20T04:22:06.939Z,16.80
2022-12-20T04:24:47.850Z,21.80
2022-12-20T04:27:32.654Z,21.40
2022-12-20T04:30:02.278Z,22.80
2022-12-20T04:32:30.883Z,21.50
2022-12-20T04:34:58.861Z,26.30
2022-12-20T04:37:28.673Z,19.80
2022-12-20T04:39:59.265Z,32.70
2022-12-20T04:42:37.585Z,23.80
2022-12-20T04:45:06.547Z,21.10
2022-12-20T04:47:34.984Z,23.47
2022-12-20T04:50:03.014Z,23.43
2022-12-20T04:52:50.090Z,24.90
2022-12-20T04:55:18.260Z,26.77
2022-12-20T04:57:46.763Z,18.40
2022-12-20T05:00:15.663Z,20.00
2022-12-20T05:02:46.577Z,17.60
2022-12-20T05:05:18.050Z,21.40
2022-12-20T05:07:53.144Z,19.20
2022-12-20T05:10:21.758Z,19.33
2022-12-20T05:12:51.212Z,16.40
2022-12-20T05:15:30.394Z,21.13
2022-12-20T05:18:00.432Z,20.80
2022-12-20T05:20:37.867Z,16.77
2022-12-20T05:23:24.913Z,19.03
2022-12-20T05:26:18.880Z,19.50
2022-12-20T05:28:48.071Z,16.50
2022-12-20T05:31:16.273Z,19.93
2022-12-20T05:33:45.662Z,17.30
2022-12-20T05:36:14.154Z,18.33
2022-12-20T05:38:43.568Z,15.43
2022-12-20T05:41:16.862Z,16.37
2022-12-20T05:43:48.681Z,15.13
2022-12-20T05:46:16.975Z,15.13
2022-12-20T05:48:54.619Z,14.70
2022-12-20T05:51:22.809Z,15.60
2022-12-20T05:54:00.618Z,16.07
2022-12-20T05:56:48.888Z,15.83
2022-12-20T05:59:19.547Z,17.60
2022-12-20T06:01:48.364Z,15.87
2022-12-20T06:04:16.661Z,14.90
2022-12-20T06:06:46.479Z,16.20
2022-12-20T06:09:18.305Z,15.03
2022-12-20T06:11:53.580Z,17.00
2022-12-20T06:14:22.720Z,16.80
2022-12-20T06:16:51.046Z,21.10
2022-12-20T06:19:22.043Z,16.97
2022-12-20T06:21:53.309Z,15.40
2022-12-20T06:24:29.683Z,14.17
2022-12-20T06:26:58.176Z,15.60
2022-12-20T06:29:27.468Z,17.27
2022-12-20T06:32:05.307Z,14.03
2022-12-20T06:34:33.709Z,18.90
2022-12-20T06:37:02.565Z,19.23
2022-12-20T06:39:35.480Z,17.00
2022-12-20T06:42:05.704Z,16.03
2022-12-20T06:44:35.058Z,27.67
2022-12-20T06:47:03.470Z,18.10
2022-12-20T06:49:31.994Z,14.70
2022-12-20T06:52:00.428Z,22.63
2022-12-20T06:54:46.380Z,16.20
2022-12-20T06:57:14.715Z,14.83
2022-12-20T06:59:45.088Z,14.17
2022-12-20T07:02:13.641Z,14.97
2022-12-20T07:04:42.246Z,26.00
2022-12-20T07:07:10.457Z,57.57
2022-12-20T07:09:41.252Z,36.40
2022-12-20T07:12:11.120Z,26.83
2022-12-20T07:14:39.143Z,23.83
2022-12-20T07:17:07.490Z,19.63
2022-12-20T07:19:36.570Z,19.73
2022-12-20T07:22:05.819Z,18.00
2022-12-20T07:24:34.270Z,23.00
2022-12-20T07:27:02.903Z,13.27
2022-12-20T07:29:32.321Z,17.23
2022-12-20T07:32:00.533Z,14.67
2022-12-20T07:34:28.654Z,19.07
2022-12-20T07:36:56.690Z,16.40
2022-12-20T07:39:24.752Z,16.07
2022-12-20T07:41:54.847Z,14.80
2022-12-20T07:44:24.252Z,19.27
2022-12-20T07:46:54.282Z,18.30
2022-12-20T07:49:22.366Z,14.20
2022-12-20T07:51:52.981Z,19.97
2022-12-20T07:54:23.699Z,16.37
2022-12-20T07:56:57.910Z,18.60
2022-12-20T07:59:30.302Z,16.90
2022-12-20T08:02:04.760Z,15.40
2022-12-20T08:04:34.944Z,15.63
2022-12-20T08:07:03.650Z,15.80
2022-12-20T08:09:36.143Z,15.63
2022-12-20T08:12:04.531Z,11.97
2022-12-20T08:14:33.189Z,16.97
2022-12-20T08:17:02.684Z,14.50
2022-12-20T08:19:32.821Z,15.27
2022-12-20T08:22:01.158Z,18.57
2022-12-20T08:24:29.282Z,16.60
2022-12-20T08:26:57.882Z,19.40
2022-12-20T08:29:25.946Z,26.40
2022-12-20T08:31:53.972Z,15.03
2022-12-20T08:34:23.357Z,14.63
2022-12-20T08:36:51.720Z,16.33
2022-12-20T08:39:19.851Z,17.00
2022-12-20T08:41:47.994Z,15.23
2022-12-20T08:44:16.039Z,14.87
2022-12-20T08:46:44.184Z,14.10
2022-12-20T08:49:12.541Z,15.07
2022-12-20T08:51:42.079Z,13.60
2022-12-20T08:54:10.238Z,16.53
2022-12-20T08:56:38.309Z,17.60
2022-12-20T08:59:06.891Z,12.17
2022-12-20T09:01:35.002Z,15.00
2022-12-20T09:04:03.148Z,13.97
2022-12-20T09:06:31.229Z,13.50
2022-12-20T09:09:01.231Z,12.80
2022-12-20T09:11:29.690Z,13.10
2022-12-20T09:13:59.440Z,14.27
2022-12-20T09:16:29.977Z,15.60
2022-12-20T09:19:05.087Z,17.50
2022-12-20T09:21:35.336Z,14.80
2022-12-20T09:24:05.553Z,18.20
2022-12-20T09:26:35.262Z,17.07
2022-12-20T09:29:05.147Z,22.47
2022-12-20T09:31:33.303Z,23.97
2022-12-20T09:34:01.670Z,16.97
2022-12-20T09:36:30.888Z,21.17
2022-12-20T09:38:59.574Z,19.10
2022-12-20T09:41:32.711Z,19.83
2022-12-20T09:44:05.209Z,22.93
2022-12-20T09:46:33.420Z,22.33
2022-12-20T09:49:01.698Z,23.67
2022-12-20T09:51:55.606Z,21.70
2022-12-20T09:54:30.421Z,23.60
2022-12-20T09:57:07.845Z,20.83
2022-12-20T09:59:40.528Z,25.50
2022-12-20T10:02:43.543Z,22.93
2022-12-20T10:05:00.703Z,19.10
2022-12-20T10:07:39.322Z,23.73
2022-12-20T10:10:46.616Z,20.40
2022-12-20T10:13:27.223Z,20.47
2022-12-20T10:16:04.320Z,22.97
2022-12-20T10:18:47.687Z,23.83
2022-12-20T10:21:21.956Z,19.20
2022-12-20T10:24:00.928Z,26.00
2022-12-20T10:26:29.541Z,18.93
2022-12-20T10:28:58.905Z,21.03
2022-12-20T10:31:28.337Z,23.03
2022-12-20T10:33:57.659Z,17.80
2022-12-20T10:36:28.052Z,22.93
2022-12-20T10:38:57.899Z,23.23
2022-12-20T10:41:28.965Z,23.10
2022-12-20T10:44:01.706Z,22.00
2022-12-20T10:46:39.020Z,29.70
2022-12-20T10:49:38.075Z,22.23
2022-12-20T10:52:14.338Z,21.43
2022-12-20T10:54:43.912Z,23.03
2022-12-20T10:57:20.104Z,24.87
2022-12-20T10:59:53.048Z,21.30
2022-12-20T11:02:36.993Z,21.97
2022-12-20T11:05:23.114Z,18.23
2022-12-20T11:08:33.511Z,19.80
2022-12-20T11:10:44.431Z,21.33
2022-12-20T11:13:23.083Z,19.17
2022-12-20T11:15:57.077Z,21.93
2022-12-20T11:18:38.454Z,21.33
2022-12-20T11:21:27.692Z,20.50
2022-12-20T11:24:03.523Z,25.50
2022-12-20T11:26:44.664Z,21.47
2022-12-20T11:29:38.093Z,18.17
2022-12-20T11:32:17.501Z,23.43
2022-12-20T11:34:55.595Z,14.93
2022-12-20T11:37:25.379Z,21.40
2022-12-20T11:40:12.366Z,18.20
2022-12-20T11:42:57.199Z,14.27
2022-12-20T11:45:31.405Z,15.47
2022-12-20T11:48:16.722Z,16.87
2022-12-20T11:50:56.238Z,12.93
2022-12-20T11:53:29.119Z,14.17
2022-12-20T11:56:01.065Z,17.00
2022-12-20T11:58:34.961Z,15.30
2022-12-20T12:01:08.121Z,15.13
2022-12-20T12:03:39.054Z,14.77
2022-12-20T12:06:10.814Z,16.00
2022-12-20T12:08:48.146Z,13.80
2022-12-20T12:11:56.146Z,16.87
2022-12-20T12:14:16.768Z,18.40
2022-12-20T12:16:51.524Z,13.33
2022-12-20T12:19:20.914Z,17.93
2022-12-20T12:21:55.632Z,17.70
2022-12-20T12:24:29.209Z,15.87
2022-12-20T12:26:59.821Z,15.90
2022-12-20T12:29:30.726Z,19.00
2022-12-20T12:32:06.187Z,14.87
2022-12-20T12:34:50.634Z,19.50
2022-12-20T12:37:38.791Z,17.90
2022-12-20T12:40:28.821Z,19.93
2022-12-20T12:43:34.373Z,23.10
2022-12-20T12:46:06.337Z,19.37
2022-12-20T12:48:42.874Z,19.37
2022-12-20T12:51:15.155Z,20.30
2022-12-20T12:53:45.482Z,18.07
2022-12-20T12:56:46.815Z,19.37
2022-12-20T12:59:45.941Z,22.60
2022-12-20T13:02:34.208Z,20.03
2022-12-20T13:05:23.963Z,19.70
2022-12-20T13:07:55.414Z,20.07
2022-12-20T13:11:00.297Z,20.50
2022-12-20T13:13:28.732Z,16.70
2022-12-20T13:16:14.742Z,20.27
2022-12-20T13:19:13.099Z,18.07
2022-12-20T13:21:44.749Z,17.97
2022-12-20T13:24:38.073Z,21.10
2022-12-20T13:27:18.890Z,20.10
2022-12-20T13:30:03.492Z,19.60
2022-12-20T13:33:25.829Z,19.07
2022-12-20T13:36:34.978Z,18.63
2022-12-20T13:39:26.273Z,18.00
2022-12-20T13:42:16.970Z,19.50
2022-12-20T13:44:46.588Z,19.87
2022-12-20T13:47:35.520Z,22.37
2022-12-20T13:50:22.584Z,19.67
2022-12-20T13:52:51.307Z,19.90
2022-12-20T13:55:31.749Z,18.80
2022-12-20T13:58:06.363Z,25.93
2022-12-20T14:00:35.125Z,18.87
2022-12-20T14:03:04.031Z,20.60
2022-12-20T14:05:39.008Z,18.60
2022-12-20T14:08:09.452Z,18.50
2022-12-20T14:10:38.149Z,19.37
2022-12-20T14:13:21.192Z,24.23
2022-12-20T14:15:50.175Z,19.90
2022-12-20T14:18:20.892Z,19.07
2022-12-20T14:20:52.297Z,17.57
2022-12-20T14:23:23.543Z,23.47
2022-12-20T14:25:54.481Z,22.53
2022-12-20T14:28:38.707Z,23.37
2022-12-20T14:31:08.930Z,19.33
2022-12-20T14:33:39.806Z,22.70
2022-12-20T14:36:19.051Z,21.87
2022-12-20T14:38:49.354Z,17.00
2022-12-20T14:41:35.799Z,20.20
2022-12-20T14:44:16.668Z,18.20
2022-12-20T14:46:50.345Z,20.00
2022-12-20T14:49:23.491Z,22.03
2022-12-20T14:51:52.431Z,20.70
2022-12-20T14:54:56.662Z,18.63
2022-12-20T14:57:13.315Z,18.90
2022-12-20T14:59:42.755Z,18.37
2022-12-20T15:02:36.986Z,20.03
2022-12-20T15:05:53.305Z,18.37
2022-12-20T15:08:24.112Z,17.70
2022-12-20T15:10:55.416Z,19.90
2022-12-20T15:13:27.779Z,21.07
2022-12-20T15:15:59.793Z,24.57
2022-12-20T15:18:28.104Z,19.33
2022-12-20T15:21:07.987Z,18.33
2022-12-20T15:23:36.539Z,20.50
2022-12-20T15:26:04.668Z,17.40
2022-12-20T15:28:33.553Z,18.13
2022-12-20T15:31:04.678Z,20.67
2022-12-20T15:33:35.430Z,20.97
2022-12-20T15:36:03.743Z,14.60
2022-12-20T15:39:03.252Z,18.83
2022-12-20T15:41:23.285Z,18.87
2022-12-20T15:43:54.753Z,23.20
2022-12-20T15:46:24.445Z,25.13
2022-12-20T15:48:52.545Z,25.43
2022-12-20T15:51:27.677Z,17.70
2022-12-20T15:53:56.120Z,17.23
2022-12-20T15:56:26.042Z,19.70
2022-12-20T15:58:54.389Z,25.43
2022-12-20T16:01:27.042Z,26.13
2022-12-20T16:03:55.288Z,29.30
2022-12-20T16:06:23.942Z,31.33
2022-12-20T16:08:52.171Z,23.90
2022-12-20T16:11:22.576Z,26.00
2022-12-20T16:13:50.700Z,21.13
2022-12-20T16:16:19.916Z,21.00
2022-12-20T16:18:51.532Z,22.87
2022-12-20T16:21:22.610Z,31.53
2022-12-20T16:23:51.713Z,24.37
2022-12-20T16:26:24.108Z,20.50
2022-12-20T16:28:53.654Z,19.97
2022-12-20T16:31:25.813Z,16.30
2022-12-20T16:33:56.505Z,17.67
2022-12-20T16:36:25.509Z,21.30
2022-12-20T16:38:54.799Z,22.80
2022-12-20T16:41:25.464Z,26.20
2022-12-20T16:43:54.555Z,21.70
2022-12-20T16:46:26.192Z,25.03
2022-12-20T16:48:56.960Z,21.30
2022-12-20T16:51:27.275Z,18.67
2022-12-20T16:56:45.823Z,15.63
2022-12-20T16:59:20.563Z,15.97
2022-12-20T17:01:52.765Z,20.73
2022-12-20T17:04:22.622Z,17.80
2022-12-20T17:06:51.118Z,14.23
2022-12-20T17:12:10.279Z,12.77
2022-12-20T17:14:38.246Z,17.40
2022-12-20T17:17:06.261Z,18.23
2022-12-20T17:19:35.579Z,17.40
2022-12-20T17:24:49.570Z,15.93
2022-12-20T17:27:17.525Z,17.80
2022-12-20T17:29:45.476Z,19.00
2022-12-20T17:32:21.701Z,13.70
2022-12-20T17:34:51.777Z,15.07
2022-12-20T17:37:20.851Z,17.20
2022-12-20T17:39:48.913Z,15.77
2022-12-20T17:42:17.355Z,15.03
2022-12-20T17:44:46.668Z,28.80
2022-12-20T17:47:16.877Z,16.30
2022-12-20T17:49:44.875Z,18.77
2022-12-20T17:52:15.571Z,16.73
2022-12-20T17:54:43.908Z,18.83
2022-12-20T17:57:16.021Z,20.23
2022-12-20T17:59:44.490Z,17.53
2022-12-20T18:02:21.643Z,15.80
2022-12-20T18:04:49.968Z,17.03
2022-12-20T18:07:19.818Z,16.33
2022-12-20T18:09:48.889Z,13.70
2022-12-20T18:12:17.944Z,13.63
2022-12-20T18:14:46.120Z,10.63
2022-12-20T18:17:14.299Z,11.40
2022-12-20T18:19:43.798Z,12.10
2022-12-20T18:22:12.114Z,13.53
2022-12-20T18:24:41.478Z,9.90
2022-12-20T18:27:09.862Z,11.57
2022-12-20T18:29:37.927Z,11.13
2022-12-20T18:32:06.709Z,10.97
2022-12-20T18:34:34.944Z,8.60
2022-12-20T18:37:05.418Z,11.60
2022-12-20T18:39:33.907Z,13.80
2022-12-20T18:42:03.392Z,18.13
2022-12-20T18:44:35.508Z,15.17
2022-12-20T18:47:03.909Z,19.17
2022-12-20T18:49:32.183Z,19.87
2022-12-20T18:52:00.955Z,22.57
2022-12-20T18:54:30.283Z,27.53
2022-12-20T18:56:58.463Z,18.80
2022-12-20T18:59:27.905Z,16.50
2022-12-20T19:01:56.207Z,15.10
2022-12-20T19:04:25.268Z,17.40
2022-12-20T19:06:53.494Z,11.60
2022-12-20T19:09:21.651Z,13.53
2022-12-20T19:11:56.199Z,13.13
2022-12-20T19:14:26.880Z,14.97
2022-12-20T19:16:55.047Z,14.73
2022-12-20T19:19:23.112Z,14.63
2022-12-20T19:21:51.303Z,12.80
2022-12-20T19:24:19.343Z,11.73
2022-12-20T19:26:47.375Z,11.67
2022-12-20T19:29:15.500Z,11.90
2022-12-20T19:31:44.970Z,17.57
2022-12-20T19:34:15.050Z,14.23
2022-12-20T19:36:44.510Z,15.60
2022-12-20T19:39:16.294Z,19.97
2022-12-20T19:41:54.909Z,31.87
2022-12-20T19:44:28.624Z,26.30
2022-12-20T19:47:06.120Z,18.10
2022-12-20T19:49:35.352Z,15.23
2022-12-20T19:52:03.403Z,12.83
2022-12-20T19:54:31.522Z,20.97
2022-12-20T19:56:59.604Z,16.50
2022-12-20T19:59:30.151Z,15.40
2022-12-20T20:01:59.709Z,19.03
2022-12-20T20:04:27.930Z,14.73
2022-12-20T20:06:56.369Z,14.20
2022-12-20T20:09:27.704Z,11.80
2022-12-20T20:11:55.773Z,12.40
2022-12-20T20:14:24.080Z,16.10
2022-12-20T20:16:53.420Z,14.13
2022-12-20T20:19:23.780Z,16.10
2022-12-20T20:21:51.964Z,14.60
2022-12-20T20:24:20.774Z,12.33
2022-12-20T20:26:48.889Z,12.00
2022-12-20T20:29:17.149Z,15.63
2022-12-20T20:31:45.651Z,13.00
2022-12-20T20:34:13.809Z,12.20
2022-12-20T20:36:43.236Z,14.93
2022-12-20T20:39:11.380Z,16.90
2022-12-20T20:41:39.567Z,12.20
2022-12-20T20:44:07.703Z,14.90
2022-12-20T20:46:35.865Z,15.37
2022-12-20T20:49:04.308Z,19.50
2022-12-20T20:51:33.157Z,15.10
2022-12-20T20:54:02.837Z,15.00
2022-12-20T20:56:31.390Z,14.37
2022-12-20T20:59:05.863Z,17.10
2022-12-20T21:01:35.410Z,12.90
2022-12-20T21:04:04.244Z,14.90
2022-12-20T21:06:40.073Z,16.77
2022-12-20T21:09:11.307Z,15.53
2022-12-20T21:11:39.590Z,14.50
2022-12-20T21:14:07.693Z,12.47
2022-12-20T21:16:36.573Z,16.47
2022-12-20T21:19:05.754Z,16.40
2022-12-20T21:21:33.991Z,15.40
2022-12-20T21:24:02.020Z,21.47
2022-12-20T21:26:31.660Z,18.60
2022-12-20T21:29:00.988Z,15.97
2022-12-20T21:31:29.201Z,18.47
2022-12-20T21:33:57.582Z,23.10
2022-12-20T21:36:26.460Z,19.10
2022-12-20T21:38:56.076Z,20.77
2022-12-20T21:41:26.722Z,19.80
2022-12-20T21:43:58.027Z,17.93
2022-12-20T21:46:26.575Z,18.20
2022-12-20T21:48:56.139Z,21.93
2022-12-20T21:51:26.085Z,19.13
2022-12-20T21:53:55.490Z,17.40
2022-12-20T21:56:25.051Z,15.17
2022-12-20T21:58:53.245Z,18.93
2022-12-20T22:01:24.289Z,16.20
2022-12-20T22:03:53.592Z,18.00
2022-12-20T22:06:22.541Z,15.83
2022-12-20T22:08:50.809Z,18.20
2022-12-20T22:11:19.855Z,14.20
2022-12-20T22:13:48.413Z,15.13
2022-12-20T22:16:18.449Z,16.73
2022-12-20T22:18:50.326Z,12.63
2022-12-20T22:21:19.870Z,16.97
2022-12-20T22:23:48.138Z,16.07
2022-12-20T22:26:18.205Z,14.70
2022-12-20T22:28:48.609Z,15.73
2022-12-20T22:31:17.650Z,15.47
2022-12-20T22:33:47.701Z,17.10
2022-12-20T22:36:16.922Z,16.80
2022-12-20T22:38:45.363Z,16.20
2022-12-20T22:41:14.828Z,13.17
2022-12-20T22:43:44.532Z,13.70
2022-12-20T22:46:13.751Z,17.50
2022-12-20T22:48:42.165Z,16.17
2022-12-20T22:51:13.722Z,14.40
2022-12-20T22:53:42.138Z,16.37
2022-12-20T22:56:10.626Z,14.00
2022-12-20T22:58:40.003Z,14.53
2022-12-20T23:01:12.599Z,12.23
2022-12-20T23:03:41.617Z,14.37
2022-12-20T23:06:14.743Z,20.30
2022-12-20T23:08:42.761Z,13.30
2022-12-20T23:11:34.046Z,16.83
2022-12-20T23:14:19.390Z,13.97
2022-12-20T23:16:47.514Z,14.70
2022-12-20T23:19:15.557Z,16.37
2022-12-20T23:22:02.378Z,17.13
2022-12-20T23:24:30.416Z,17.53
2022-12-20T23:26:58.795Z,13.63
2022-12-20T23:29:26.843Z,15.53
2022-12-20T23:31:54.958Z,17.27
2022-12-20T23:34:24.418Z,15.73
2022-12-20T23:36:53.783Z,13.23
2022-12-20T23:39:21.775Z,14.17
2022-12-20T23:41:49.753Z,12.73
2022-12-20T23:44:18.302Z,18.10
2022-12-20T23:46:46.288Z,19.33
2022-12-20T23:49:14.646Z,21.40
2022-12-20T23:51:42.653Z,17.80
2022-12-20T23:54:12.427Z,21.23
2022-12-20T23:56:40.402Z,17.97
2022-12-20T23:59:08.437Z,18.57
